Time;durP1;ratioP1;P1;durP2;ratioP2;P2;SDS_P1;SDS_P2;PMS_P1;PMS_P2;Temp;Humidity;BMP_temperature;BMP_pressure;BME280_temperature;BME280_humidity;BME280_pressure;Samples;Min_cycle;Max_cycle;Signal;HPM_P1;HPM_P2
2023/08/09 00:00:26;;;;;;;4.10;0.82;;;;;;;14.23;84.72;94858.22;4980522;28;20324;-75
2023/08/09 00:02:53;;;;;;;1.80;0.90;;;;;;;14.20;84.92;94853.47;4972253;28;20700;-76
2023/08/09 00:05:19;;;;;;;0.80;0.75;;;;;;;14.14;85.01;94854.03;4979537;28;20197;-75
2023/08/09 00:07:47;;;;;;;1.15;0.80;;;;;;;14.34;84.46;94852.31;4984154;28;20230;-76
2023/08/09 00:10:13;;;;;;;1.15;0.80;;;;;;;14.26;84.40;94853.22;4972032;28;20669;-75
2023/08/09 00:12:40;;;;;;;1.02;0.82;;;;;;;14.27;84.71;94847.41;4975988;28;20206;-76
2023/08/09 00:15:09;;;;;;;1.33;0.93;;;;;;;14.24;84.67;94848.09;4978080;28;20237;-75
2023/08/09 00:17:36;;;;;;;2.13;0.93;;;;;;;14.32;84.30;94846.41;4983613;28;20780;-75
2023/08/09 00:20:04;;;;;;;0.90;0.85;;;;;;;14.16;84.64;94847.13;4976879;28;20265;-75
2023/08/09 00:22:31;;;;;;;1.05;0.95;;;;;;;14.13;84.82;94847.00;4973983;28;20283;-76
2023/08/09 00:24:57;;;;;;;0.90;0.77;;;;;;;14.17;84.58;94843.25;4986916;28;20205;-76
2023/08/09 00:27:24;;;;;;;1.20;1.02;;;;;;;14.10;85.28;94845.75;4980730;28;20205;-76
2023/08/09 00:29:51;;;;;;;1.45;1.02;;;;;;;14.08;85.12;94853.47;4972625;28;20352;-75
2023/08/09 00:32:19;;;;;;;0.80;0.80;;;;;;;14.11;85.02;94839.16;4984500;28;20210;-77
2023/08/09 00:34:46;;;;;;;1.38;0.80;;;;;;;14.09;85.00;94841.44;4980889;28;20218;-76
2023/08/09 00:37:13;;;;;;;1.35;1.05;;;;;;;14.14;84.91;94833.03;4975166;28;20203;-76
2023/08/09 00:39:39;;;;;;;0.80;0.80;;;;;;;14.09;85.06;94841.44;4972701;28;20202;-75
2023/08/09 00:42:06;;;;;;;1.25;1.00;;;;;;;14.10;86.00;94842.25;4972211;28;20210;-75
2023/08/09 00:44:33;;;;;;;0.98;0.77;;;;;;;14.05;85.47;94846.00;4978608;28;21011;-75
2023/08/09 00:47:00;;;;;;;1.45;1.00;;;;;;;14.03;85.12;94842.84;4959721;28;20222;-77
2023/08/09 00:49:28;;;;;;;3.08;1.05;;;;;;;14.04;85.37;94838.97;4979784;28;20198;-76
2023/08/09 00:51:55;;;;;;;1.40;1.00;;;;;;;13.96;85.88;94831.72;4980981;28;20564;-75
2023/08/09 00:54:22;;;;;;;1.05;0.90;;;;;;;13.91;85.99;94840.13;4976105;28;20253;-75
2023/08/09 00:56:49;;;;;;;1.42;1.00;;;;;;;13.83;86.33;94832.88;4975239;28;20229;-77
2023/08/09 00:59:16;;;;;;;1.38;0.98;;;;;;;13.86;86.04;94832.19;4985867;28;20206;-75
2023/08/09 01:01:42;;;;;;;2.53;1.05;;;;;;;13.72;86.79;94837.19;4977972;28;20217;-76
2023/08/09 01:04:10;;;;;;;1.60;0.80;;;;;;;13.55;87.79;94832.00;4973233;28;20597;-75
2023/08/09 01:06:45;;;;;;;1.15;0.90;;;;;;;13.55;87.62;94834.72;4984550;28;20223;-75
2023/08/09 01:09:23;;;;;;;1.25;0.70;;;;;;;13.63;87.57;94825.66;4980369;28;20198;-75
2023/08/09 01:11:53;;;;;;;0.98;0.93;;;;;;;13.56;87.39;94828.13;4974771;28;20245;-75
2023/08/09 01:14:22;;;;;;;1.05;0.80;;;;;;;13.56;87.81;94825.41;4984608;28;20256;-76
2023/08/09 01:16:52;;;;;;;3.20;0.98;;;;;;;13.56;88.10;94828.13;4984273;28;20597;-76
2023/08/09 01:19:30;;;;;;;2.47;0.98;;;;;;;13.61;87.67;94826.00;4978249;28;20207;-76
2023/08/09 01:22:04;;;;;;;1.75;1.10;;;;;;;13.72;87.17;94832.56;4971104;28;20202;-76
2023/08/09 01:24:33;;;;;;;2.40;1.30;;;;;;;13.76;86.54;94832.66;4982471;28;20195;-76
2023/08/09 01:27:00;;;;;;;1.98;1.20;;;;;;;13.70;86.85;94834.03;4982335;28;20245;-76
2023/08/09 01:29:27;;;;;;;1.95;1.25;;;;;;;13.66;87.07;94835.88;4972093;28;20206;-76
2023/08/09 01:31:54;;;;;;;2.58;1.02;;;;;;;13.72;87.07;94826.31;4982846;28;20276;-76
2023/08/09 01:34:21;;;;;;;1.20;0.90;;;;;;;13.79;86.35;94832.00;4979991;28;20732;-76
2023/08/09 01:36:51;;;;;;;1.65;1.02;;;;;;;13.88;86.36;94829.94;4979540;28;20578;-76
2023/08/09 01:39:23;;;;;;;1.20;1.10;;;;;;;13.72;86.67;94837.19;4959235;28;20364;-76
2023/08/09 01:41:52;;;;;;;5.40;1.30;;;;;;;13.68;86.79;94830.84;4980751;28;20245;-76
2023/08/09 01:44:21;;;;;;;0.90;0.90;;;;;;;13.70;86.84;94834.81;4977343;28;20225;-76
2023/08/09 01:46:48;;;;;;;1.10;0.90;;;;;;;13.67;87.08;94837.41;4971114;28;21043;-76
2023/08/09 01:49:17;;;;;;;1.15;1.00;;;;;;;13.59;87.75;94833.69;4977452;28;20205;-76
2023/08/09 01:51:45;;;;;;;1.10;0.90;;;;;;;13.58;88.42;94826.66;4981843;28;20202;-76
2023/08/09 01:54:12;;;;;;;2.08;1.45;;;;;;;13.47;88.73;94837.22;4974591;28;20243;-76
2023/08/09 01:56:39;;;;;;;1.55;1.20;;;;;;;13.38;88.95;94838.47;4973713;28;20234;-76
2023/08/09 01:59:08;;;;;;;1.52;1.15;;;;;;;13.43;89.03;94841.75;4985815;28;20272;-76
2023/08/09 02:01:36;;;;;;;0.88;0.88;;;;;;;13.42;88.64;94851.03;4970768;28;20818;-76
2023/08/09 02:04:03;;;;;;;1.70;1.27;;;;;;;13.35;89.16;94844.59;4972659;28;20206;-76
2023/08/09 02:06:32;;;;;;;1.55;1.25;;;;;;;13.32;89.49;94835.19;4982415;28;20233;-75
2023/08/09 02:08:59;;;;;;;1.70;1.30;;;;;;;13.35;89.37;94842.66;4979661;28;20240;-76
2023/08/09 02:11:25;;;;;;;1.52;1.30;;;;;;;13.35;89.50;94839.94;4974621;28;20210;-76
2023/08/09 02:13:52;;;;;;;2.42;1.10;;;;;;;13.31;89.52;94841.75;4981969;28;20210;-75
2023/08/09 02:16:20;;;;;;;1.42;1.20;;;;;;;13.19;89.60;94841.75;4980748;28;20703;-75
2023/08/09 02:18:48;;;;;;;2.28;1.35;;;;;;;13.22;89.26;94841.06;4979662;28;20616;-76
2023/08/09 02:21:15;;;;;;;1.75;1.40;;;;;;;13.24;89.53;94838.00;4972020;28;20283;-76
2023/08/09 02:23:42;;;;;;;1.30;0.98;;;;;;;13.26;89.63;94836.53;4980196;28;20249;-76
2023/08/09 02:26:09;;;;;;;1.20;1.10;;;;;;;13.26;89.45;94841.97;4978616;28;20218;-76
2023/08/09 02:28:36;;;;;;;1.73;1.50;;;;;;;13.20;89.34;94843.34;4976211;28;20231;-76
2023/08/09 02:31:03;;;;;;;2.00;1.45;;;;;;;13.28;88.49;94839.69;4975108;28;20202;-77
2023/08/09 02:33:31;;;;;;;1.73;1.33;;;;;;;13.17;88.78;94844.00;4984648;28;20252;-76
2023/08/09 02:36:00;;;;;;;1.40;1.00;;;;;;;13.21;88.43;94842.19;4968596;28;20221;-75
2023/08/09 02:38:28;;;;;;;2.10;1.33;;;;;;;13.16;88.67;94845.13;4972877;28;20261;-76
2023/08/09 02:40:55;;;;;;;1.40;1.30;;;;;;;13.14;88.97;94845.47;4986356;28;20276;-77
2023/08/09 02:43:24;;;;;;;1.73;1.13;;;;;;;13.11;88.80;94851.56;4981539;28;20280;-76
2023/08/09 02:45:51;;;;;;;2.22;1.38;;;;;;;13.13;89.26;94859.38;4973494;28;20213;-76
2023/08/09 02:48:18;;;;;;;2.58;1.30;;;;;;;13.03;89.42;94849.72;4969834;28;20605;-76
2023/08/09 02:50:47;;;;;;;1.60;1.50;;;;;;;13.11;89.11;94856.22;4982203;28;20261;-76
2023/08/09 02:53:16;;;;;;;2.65;1.88;;;;;;;13.12;88.78;94863.22;4977821;28;20688;-76
2023/08/09 02:55:44;;;;;;;2.00;1.80;;;;;;;13.08;88.86;94860.41;4971326;28;20240;-76
2023/08/09 02:58:11;;;;;;;1.85;1.70;;;;;;;13.00;89.33;94860.47;4981144;28;20206;-76
2023/08/09 03:00:38;;;;;;;2.38;1.92;;;;;;;12.98;89.78;94862.78;4979386;28;20207;-76
2023/08/09 03:03:06;;;;;;;2.22;2.03;;;;;;;12.86;90.03;94849.91;4973241;28;20229;-76
2023/08/09 03:05:35;;;;;;;2.70;2.10;;;;;;;12.94;90.22;94862.63;4978711;28;20240;-76
2023/08/09 03:08:03;;;;;;;1.83;1.50;;;;;;;12.90;90.30;94861.72;4978810;28;20308;-76
2023/08/09 03:10:30;;;;;;;1.52;1.40;;;;;;;12.89;90.51;94864.75;4975810;28;20213;-77
2023/08/09 03:12:57;;;;;;;2.80;1.52;;;;;;;12.81;90.61;94853.66;4974301;28;20205;-77
2023/08/09 03:15:24;;;;;;;4.00;1.40;;;;;;;12.97;90.57;94870.13;4986072;28;20657;-77
2023/08/09 03:17:51;;;;;;;1.00;0.90;;;;;;;12.95;90.33;94868.88;4978391;28;20710;-77
2023/08/09 03:20:18;;;;;;;2.33;1.42;;;;;;;12.98;91.00;94874.44;4969665;28;20670;-77
2023/08/09 03:22:47;;;;;;;1.98;1.33;;;;;;;13.06;90.46;94872.75;4970669;28;20209;-76
2023/08/09 03:25:16;;;;;;;1.38;1.00;;;;;;;13.07;90.86;94866.19;4975990;28;20237;-76
2023/08/09 03:27:43;;;;;;;2.08;1.35;;;;;;;13.03;90.68;94870.69;4975072;28;20206;-76
2023/08/09 03:30:11;;;;;;;1.63;1.30;;;;;;;13.05;90.71;94866.50;4971518;28;20198;-77
2023/08/09 03:32:37;;;;;;;3.78;1.75;;;;;;;13.07;90.03;94871.63;4983058;28;20202;-77
2023/08/09 03:35:06;;;;;;;1.58;1.30;;;;;;;13.09;90.03;94870.16;4981792;28;20264;-77
2023/08/09 03:37:32;;;;;;;1.60;1.48;;;;;;;13.39;90.42;94867.28;4971959;28;20234;-77
2023/08/09 03:39:59;;;;;;;2.45;1.65;;;;;;;14.00;88.45;94873.47;4970261;28;20258;-77
2023/08/09 03:42:27;;;;;;;1.52;1.40;;;;;;;15.09;84.35;94871.53;4978542;28;20697;-77
2023/08/09 03:44:55;;;;;;;1.40;1.27;;;;;;;16.11;79.57;94873.28;4969442;28;20206;-76
2023/08/09 03:47:21;;;;;;;1.70;1.38;;;;;;;17.23;75.10;94866.97;4973013;28;20289;-76
2023/08/09 03:49:48;;;;;;;1.85;1.52;;;;;;;18.13;70.97;94870.84;4983137;28;20264;-76
2023/08/09 03:52:15;;;;;;;2.63;1.60;;;;;;;18.60;67.86;94873.06;4960722;28;20742;-76
2023/08/09 03:54:42;;;;;;;2.10;1.85;;;;;;;19.06;66.91;94862.66;4978241;28;20210;-76
2023/08/09 03:57:08;;;;;;;2.45;1.80;;;;;;;19.69;65.68;94875.44;4978420;28;20276;-76
2023/08/09 03:59:37;;;;;;;2.53;1.52;;;;;;;20.17;63.00;94872.69;4986351;28;20268;-77
2023/08/09 04:02:04;;;;;;;5.90;2.20;;;;;;;20.36;61.48;94872.47;4972948;28;20202;-77
2023/08/09 04:04:30;;;;;;;1.90;1.73;;;;;;;20.58;60.27;94874.16;4975417;28;20285;-76
2023/08/09 04:06:57;;;;;;;4.18;1.65;;;;;;;20.97;58.41;94879.06;4976663;28;20221;-75
2023/08/09 04:09:24;;;;;;;12.07;1.90;;;;;;;21.17;57.41;94876.78;4980305;28;20205;-75
2023/08/09 04:11:51;;;;;;;2.72;1.90;;;;;;;21.35;56.93;94868.56;4975814;28;20202;-75
2023/08/09 04:14:17;;;;;;;3.00;1.48;;;;;;;21.20;56.60;94871.28;4971942;28;20206;-76
2023/08/09 04:16:45;;;;;;;2.00;1.80;;;;;;;21.25;56.40;94876.41;4982693;28;20242;-75
2023/08/09 04:19:12;;;;;;;2.33;1.80;;;;;;;21.77;55.17;94871.38;4972479;28;20638;-76
2023/08/09 04:21:39;;;;;;;4.90;1.88;;;;;;;21.44;55.73;94871.75;4972197;28;20203;-76
2023/08/09 04:24:07;;;;;;;5.35;2.20;;;;;;;22.19;53.55;94870.63;4983823;28;20277;-76
2023/08/09 04:26:34;;;;;;;2.40;1.80;;;;;;;22.50;53.60;94874.53;4981050;28;20713;-75
2023/08/09 04:29:00;;;;;;;2.80;1.73;;;;;;;23.89;49.95;94874.69;4977935;28;20194;-76
2023/08/09 04:31:27;;;;;;;4.22;1.70;;;;;;;24.03;48.11;94859.97;4980685;28;20650;-75
2023/08/09 04:33:55;;;;;;;3.25;1.80;;;;;;;23.88;48.52;94866.81;4985051;28;20745;-76
2023/08/09 04:36:22;;;;;;;3.10;2.00;;;;;;;24.18;47.31;94864.19;4977857;28;20284;-76
2023/08/09 04:38:49;;;;;;;3.15;1.92;;;;;;;24.34;46.92;94864.44;4977981;28;20621;-76
2023/08/09 04:41:16;;;;;;;2.03;1.60;;;;;;;24.48;46.90;94866.28;4988202;28;20202;-76
2023/08/09 04:43:44;;;;;;;1.95;1.75;;;;;;;24.66;45.85;94861.34;4982216;28;20304;-75
2023/08/09 04:46:12;;;;;;;2.88;2.20;;;;;;;24.12;47.10;94860.28;4975867;28;20213;-76
2023/08/09 04:48:39;;;;;;;4.55;1.55;;;;;;;23.98;47.53;94863.94;4974140;28;20218;-76
2023/08/09 04:51:08;;;;;;;3.92;1.95;;;;;;;25.34;45.31;94855.81;4985773;28;20204;-75
2023/08/09 04:53:35;;;;;;;4.72;2.13;;;;;;;25.03;45.09;94866.09;4977848;28;20676;-76
2023/08/09 04:56:03;;;;;;;2.95;2.33;;;;;;;25.71;43.48;94856.88;4972639;28;20214;-75
2023/08/09 04:58:30;;;;;;;2.70;2.00;;;;;;;26.08;43.26;94858.72;4982834;28;20293;-77
2023/08/09 05:00:56;;;;;;;4.05;1.85;;;;;;;25.79;42.84;94869.47;4982855;28;20720;-76
2023/08/09 05:03:23;;;;;;;2.25;2.05;;;;;;;24.89;44.43;94868.22;4975082;28;20198;-76
2023/08/09 05:05:50;;;;;;;2.25;1.80;;;;;;;25.97;43.22;94847.75;4982710;28;20614;-76
2023/08/09 05:08:18;;;;;;;5.10;2.28;;;;;;;23.78;46.41;94868.44;4979311;28;20202;-76
2023/08/09 05:10:45;;;;;;;2.70;2.20;;;;;;;22.09;50.41;94873.41;4980300;28;20268;-76
2023/08/09 05:13:12;;;;;;;8.57;2.80;;;;;;;23.50;47.58;94874.16;4971919;28;20202;-76
2023/08/09 05:15:39;;;;;;;2.25;2.05;;;;;;;24.43;46.03;94880.59;4980629;28;20205;-75
2023/08/09 05:18:06;;;;;;;4.18;2.47;;;;;;;24.42;45.66;94873.47;4977953;28;20260;-75
2023/08/09 05:20:33;;;;;;;5.15;2.13;;;;;;;25.61;43.67;94871.69;4974784;28;20658;-76
2023/08/09 05:23:00;;;;;;;2.92;1.90;;;;;;;25.47;43.77;94876.22;4975450;28;20205;-76
2023/08/09 05:25:28;;;;;;;2.92;2.10;;;;;;;24.38;45.35;94892.13;4985127;28;20213;-77
2023/08/09 05:27:55;;;;;;;3.92;2.20;;;;;;;24.38;45.30;94900.41;4968621;28;20673;-76
2023/08/09 05:30:22;;;;;;;2.35;1.80;;;;;;;24.93;45.19;94896.69;4972700;28;20646;-77
2023/08/09 05:32:49;;;;;;;5.97;2.33;;;;;;;26.43;42.18;94885.13;4986299;28;20260;-75
2023/08/09 05:35:16;;;;;;;2.05;1.55;;;;;;;27.60;39.61;94877.31;4981740;28;20551;-77
2023/08/09 05:37:43;;;;;;;2.00;1.80;;;;;;;26.06;41.66;94884.13;4973589;28;20253;-76
2023/08/09 05:40:13;;;;;;;2.58;1.90;;;;;;;26.64;40.87;94890.31;4970818;28;20217;-76
2023/08/09 05:42:42;;;;;;;2.70;1.88;;;;;;;27.32;39.60;94878.69;4982373;28;20674;-76
2023/08/09 05:45:10;;;;;;;9.13;2.00;;;;;;;28.04;38.89;94867.53;4980880;28;20217;-76
2023/08/09 05:47:37;;;;;;;2.42;1.73;;;;;;;29.24;36.46;94869.22;4980634;28;20202;-77
2023/08/09 05:50:04;;;;;;;3.38;1.92;;;;;;;28.58;36.93;94870.59;4981816;28;20205;-76
2023/08/09 05:52:31;;;;;;;3.60;1.80;;;;;;;27.21;39.21;94878.09;4979437;28;20213;-77
2023/08/09 05:54:58;;;;;;;5.13;1.75;;;;;;;27.93;38.34;94878.16;4976557;28;20213;-77
2023/08/09 05:57:25;;;;;;;2.10;1.70;;;;;;;27.66;38.54;94885.94;4978448;28;20225;-76
2023/08/09 05:59:53;;;;;;;2.90;1.70;;;;;;;27.19;38.87;94880.56;4983066;28;20238;-76
2023/08/09 06:02:21;;;;;;;2.70;2.10;;;;;;;27.97;37.91;94884.44;4975974;28;20642;-75
2023/08/09 06:04:47;;;;;;;2.00;1.80;;;;;;;27.98;37.41;94877.66;4975288;28;20244;-76
2023/08/09 06:07:14;;;;;;;2.47;1.83;;;;;;;28.47;36.98;94877.66;4985924;28;20601;-76
2023/08/09 06:09:41;;;;;;;3.15;1.73;;;;;;;27.46;38.82;94874.81;4976025;28;20206;-76
2023/08/09 06:12:08;;;;;;;2.60;1.80;;;;;;;26.36;40.07;94879.69;4973575;28;20281;-75
2023/08/09 06:14:34;;;;;;;2.80;1.80;;;;;;;27.24;39.18;94883.59;4971833;28;20205;-75
2023/08/09 06:17:02;;;;;;;2.28;1.85;;;;;;;27.25;38.65;94873.25;4983989;28;20237;-75
2023/08/09 06:19:29;;;;;;;3.38;1.80;;;;;;;27.55;38.42;94875.81;4976520;28;20265;-76
2023/08/09 06:21:56;;;;;;;2.30;1.52;;;;;;;27.42;38.96;94872.09;4971688;28;20206;-75
2023/08/09 06:24:23;;;;;;;2.38;1.38;;;;;;;27.55;38.41;94872.22;4981308;28;20206;-75
2023/08/09 06:26:50;;;;;;;2.25;1.50;;;;;;;28.00;37.80;94871.66;4981481;28;20554;-75
2023/08/09 06:29:16;;;;;;;1.95;1.67;;;;;;;28.38;36.89;94869.16;4974170;28;20605;-77
2023/08/09 06:31:43;;;;;;;1.85;1.40;;;;;;;28.25;37.25;94855.91;4979762;28;20657;-75
2023/08/09 06:34:12;;;;;;;1.40;1.30;;;;;;;26.64;40.34;94861.75;4980610;28;20198;-74
2023/08/09 06:36:39;;;;;;;2.20;1.77;;;;;;;26.80;40.22;94865.38;4977678;28;20202;-74
2023/08/09 06:39:06;;;;;;;1.55;1.40;;;;;;;26.82;39.55;94862.94;4976074;28;20606;-75
2023/08/09 06:41:33;;;;;;;1.55;1.42;;;;;;;28.87;36.95;94851.13;4985821;28;20209;-75
2023/08/09 06:43:59;;;;;;;2.15;1.77;;;;;;;28.80;36.98;94851.31;4977259;28;20217;-75
2023/08/09 06:46:27;;;;;;;3.30;1.90;;;;;;;27.46;38.63;94856.13;4973721;28;20206;-74
2023/08/09 06:48:53;;;;;;;1.98;1.77;;;;;;;29.08;36.32;94854.56;4974251;28;20202;-74
2023/08/09 06:51:22;;;;;;;2.33;1.88;;;;;;;29.02;37.12;94865.47;4979692;28;20625;-76
2023/08/09 06:53:48;;;;;;;4.13;2.28;;;;;;;28.36;37.40;94866.00;4966708;28;20210;-75
2023/08/09 06:56:15;;;;;;;4.68;2.20;;;;;;;29.25;36.34;94861.63;4971112;28;20221;-74
2023/08/09 06:58:42;;;;;;;3.95;2.50;;;;;;;29.21;36.19;94852.59;4983352;28;20694;-75
2023/08/09 07:01:10;;;;;;;2.80;2.50;;;;;;;28.78;37.21;94852.97;4975499;28;20206;-75
2023/08/09 07:03:36;;;;;;;3.45;2.53;;;;;;;28.10;38.38;94849.09;4972339;28;20202;-75
2023/08/09 07:06:03;;;;;;;2.63;2.42;;;;;;;27.44;39.40;94853.00;4981574;28;20222;-74
2023/08/09 07:08:32;;;;;;;5.90;2.63;;;;;;;28.53;38.60;94853.63;4976018;28;20697;-74
2023/08/09 07:10:58;;;;;;;4.40;3.20;;;;;;;28.93;37.01;94849.38;4977725;28;20194;-74
2023/08/09 07:13:26;;;;;;;6.93;3.97;;;;;;;28.36;37.71;94840.91;4978093;28;20365;-75
2023/08/09 07:15:53;;;;;;;3.45;2.55;;;;;;;25.60;42.76;94848.69;4985067;28;20291;-75
2023/08/09 07:18:19;;;;;;;4.45;2.58;;;;;;;26.42;40.79;94844.66;4977014;28;20250;-74
2023/08/09 07:20:46;;;;;;;3.08;2.78;;;;;;;27.63;38.93;94836.69;4975958;28;20979;-76
2023/08/09 07:23:13;;;;;;;2.70;2.13;;;;;;;28.32;38.46;94843.78;4979961;28;20708;-75
2023/08/09 07:25:41;;;;;;;4.32;1.90;;;;;;;26.92;38.40;94850.06;4985538;28;20260;-75
2023/08/09 07:28:08;;;;;;;6.35;2.13;;;;;;;27.06;39.13;94843.47;4978658;28;20257;-76
2023/08/09 07:30:34;;;;;;;3.47;2.42;;;;;;;26.68;40.08;94838.22;4973819;28;20203;-75
2023/08/09 07:33:01;;;;;;;2.40;2.08;;;;;;;26.78;39.48;94833.66;4988722;28;20354;-76
2023/08/09 07:35:28;;;;;;;2.33;2.03;;;;;;;26.77;39.72;94832.88;4982626;28;20609;-75
2023/08/09 07:37:55;;;;;;;4.88;2.10;;;;;;;27.19;39.67;94830.47;4976726;28;20297;-74
2023/08/09 07:40:22;;;;;;;3.58;2.17;;;;;;;26.79;39.86;94830.44;4973850;28;20198;-75
2023/08/09 07:42:50;;;;;;;4.00;2.17;;;;;;;25.18;42.68;94836.22;4986311;28;20206;-75
2023/08/09 07:45:17;;;;;;;3.17;2.17;;;;;;;24.85;43.50;94834.25;4980759;28;20207;-75
2023/08/09 07:47:44;;;;;;;3.20;1.70;;;;;;;25.03;42.62;94837.59;4973967;28;20203;-75
2023/08/09 07:50:11;;;;;;;5.35;2.15;;;;;;;25.61;41.88;94835.63;4984383;28;20218;-75
2023/08/09 07:52:38;;;;;;;4.15;2.15;;;;;;;24.59;43.82;94839.28;4982098;28;20212;-74
2023/08/09 07:55:06;;;;;;;3.60;2.30;;;;;;;24.46;44.57;94832.69;4978055;28;20208;-75
2023/08/09 07:57:33;;;;;;;2.55;1.98;;;;;;;24.17;46.00;94834.94;4981799;28;20312;-75
2023/08/09 08:00:01;;;;;;;2.78;1.98;;;;;;;23.81;45.79;94834.44;4983554;28;20194;-75
2023/08/09 08:02:28;;;;;;;2.65;2.08;;;;;;;24.40;44.59;94826.03;4978736;28;20194;-76
2023/08/09 08:04:54;;;;;;;2.33;1.90;;;;;;;24.52;43.84;94825.50;4974952;28;20233;-74
2023/08/09 08:07:21;;;;;;;3.20;1.70;;;;;;;24.39;45.42;94827.22;4978851;28;20209;-74
2023/08/09 08:09:49;;;;;;;2.97;2.15;;;;;;;23.66;46.13;94830.19;4978955;28;20202;-76
2023/08/09 08:12:16;;;;;;;2.78;2.03;;;;;;;24.03;46.54;94824.78;4975708;28;20297;-75
2023/08/09 08:14:43;;;;;;;2.90;2.58;;;;;;;24.18;45.44;94819.09;4974774;28;20202;-75
2023/08/09 08:17:11;;;;;;;4.85;2.13;;;;;;;24.66;44.90;94830.88;4985926;28;20277;-75
2023/08/09 08:19:38;;;;;;;2.72;2.08;;;;;;;23.95;46.27;94823.25;4976800;28;20194;-74
2023/08/09 08:22:05;;;;;;;2.38;2.03;;;;;;;23.89;46.03;94824.09;4972400;28;20210;-76
2023/08/09 08:24:33;;;;;;;4.75;2.20;;;;;;;23.24;48.14;94815.44;4972412;28;20665;-75
2023/08/09 08:26:59;;;;;;;3.42;2.00;;;;;;;23.73;48.15;94821.84;4972750;28;20222;-74
2023/08/09 08:29:26;;;;;;;3.65;2.40;;;;;;;24.06;46.10;94818.41;4972529;28;20779;-75
2023/08/09 08:31:53;;;;;;;2.00;1.88;;;;;;;24.79;46.05;94815.28;4972105;28;20206;-74
2023/08/09 08:34:21;;;;;;;2.10;1.90;;;;;;;24.71;46.13;94827.66;4972441;28;20210;-75
2023/08/09 08:36:49;;;;;;;2.30;1.92;;;;;;;24.99;45.15;94811.91;4972391;28;20239;-75
2023/08/09 08:39:16;;;;;;;3.45;2.30;;;;;;;24.83;44.27;94808.91;4972465;28;20316;-75
2023/08/09 08:41:43;;;;;;;3.03;2.17;;;;;;;24.00;46.39;94808.97;4971784;28;20214;-76
2023/08/09 08:44:11;;;;;;;3.22;1.80;;;;;;;24.92;44.43;94806.41;4972451;28;20214;-76
2023/08/09 08:46:38;;;;;;;1.98;1.80;;;;;;;25.47;43.33;94790.22;4972013;28;20311;-75
2023/08/09 08:49:05;;;;;;;4.80;2.17;;;;;;;24.19;46.42;94795.75;4959308;28;20233;-74
2023/08/09 08:51:34;;;;;;;2.95;1.90;;;;;;;24.03;47.03;94802.63;4971356;28;20261;-75
2023/08/09 08:54:02;;;;;;;4.85;2.08;;;;;;;23.30;47.87;94799.22;4972405;28;20214;-76
2023/08/09 08:56:30;;;;;;;3.30;1.80;;;;;;;23.86;47.41;94789.72;4971905;28;20555;-75
2023/08/09 08:58:58;;;;;;;4.70;1.70;;;;;;;23.85;46.83;94784.59;4972215;28;20230;-76
2023/08/09 09:01:26;;;;;;;2.35;1.95;;;;;;;23.92;47.07;94788.06;4971830;28;20269;-76
2023/08/09 09:03:52;;;;;;;2.78;1.98;;;;;;;23.49;49.05;94781.31;4972088;28;20210;-76
2023/08/09 09:06:20;;;;;;;3.42;2.15;;;;;;;23.47;49.23;94780.94;4971800;28;20234;-77
2023/08/09 09:08:54;;;;;;;3.15;1.95;;;;;;;23.57;49.17;94774.56;4971935;28;20223;-75
2023/08/09 09:11:22;;;;;;;3.75;1.73;;;;;;;23.60;48.44;94776.50;4971617;28;20232;-75
2023/08/09 09:13:50;;;;;;;4.82;2.15;;;;;;;23.85;49.12;94771.56;4971975;28;20234;-75
2023/08/09 09:16:18;;;;;;;2.65;2.10;;;;;;;23.45;49.32;94772.25;4971660;28;20214;-75
2023/08/09 09:18:46;;;;;;;2.55;1.92;;;;;;;23.77;48.59;94777.56;4971377;28;20230;-75
2023/08/09 09:21:14;;;;;;;1.80;1.63;;;;;;;24.14;48.76;94766.53;4971453;28;20203;-78
2023/08/09 09:23:41;;;;;;;4.45;1.67;;;;;;;24.43;47.55;94764.28;4971439;28;20241;-76
2023/08/09 09:26:11;;;;;;;2.78;1.95;;;;;;;24.47;47.80;94767.75;4971473;28;20235;-75
2023/08/09 09:28:41;;;;;;;2.70;1.98;;;;;;;24.97;46.18;94758.88;4971673;28;20289;-76
2023/08/09 09:31:08;;;;;;;2.60;1.92;;;;;;;25.47;45.63;94754.16;4971494;28;20208;-76
2023/08/09 09:33:35;;;;;;;2.00;1.65;;;;;;;25.33;44.55;94745.28;4971617;28;20249;-76
2023/08/09 09:36:03;;;;;;;1.63;1.42;;;;;;;25.63;44.30;94741.66;4971392;28;20214;-76
2023/08/09 09:38:30;;;;;;;2.05;1.80;;;;;;;25.38;45.45;94744.81;4971347;28;20230;-76
2023/08/09 09:40:57;;;;;;;2.08;1.73;;;;;;;25.45;44.67;94737.16;4971341;28;20210;-76
2023/08/09 09:43:25;;;;;;;2.97;1.60;;;;;;;25.69;44.42;94728.88;4970466;28;20529;-76
2023/08/09 09:45:55;;;;;;;1.98;1.80;;;;;;;25.11;44.40;94733.72;4970120;28;20225;-75
2023/08/09 09:48:22;;;;;;;1.88;1.63;;;;;;;25.39;43.57;94736.06;4971107;28;20288;-75
2023/08/09 09:50:49;;;;;;;1.98;1.77;;;;;;;25.06;44.56;94723.09;4971160;28;20202;-75
2023/08/09 09:53:17;;;;;;;2.90;1.90;;;;;;;25.01;43.74;94715.28;4971115;28;20677;-76
2023/08/09 09:55:44;;;;;;;1.50;1.40;;;;;;;24.99;43.53;94714.91;4970390;28;20206;-77
2023/08/09 09:58:12;;;;;;;3.40;1.80;;;;;;;25.28;43.78;94718.81;4970374;28;20296;-75
2023/08/09 10:00:43;;;;;;;3.50;1.83;;;;;;;24.99;44.77;94712.13;4970123;28;20297;-76
2023/08/09 10:03:13;;;;;;;4.68;1.98;;;;;;;24.64;45.14;94705.81;4970327;28;20198;-75
2023/08/09 10:05:41;;;;;;;2.20;2.00;;;;;;;24.42;45.24;94699.00;4970685;28;20265;-76
2023/08/09 10:08:10;;;;;;;3.38;1.88;;;;;;;24.98;44.86;94710.56;4970779;28;20254;-76
2023/08/09 10:10:39;;;;;;;4.70;1.70;;;;;;;25.08;42.34;94710.38;4970674;28;20210;-76
2023/08/09 10:13:07;;;;;;;1.70;1.60;;;;;;;25.13;42.47;94700.81;4970662;28;20241;-77
2023/08/09 10:15:37;;;;;;;1.52;1.42;;;;;;;24.89;42.00;94699.94;4970670;28;20211;-76
2023/08/09 10:18:10;;;;;;;3.17;1.60;;;;;;;25.53;42.13;94695.44;4970347;28;20659;-76
2023/08/09 10:20:38;;;;;;;1.83;1.60;;;;;;;25.48;43.25;94694.69;4970626;28;20210;-75
2023/08/09 10:23:05;;;;;;;1.60;1.50;;;;;;;24.80;43.37;94683.84;4969937;28;20273;-76
2023/08/09 10:25:45;;;;;;;1.67;1.50;;;;;;;24.32;44.60;94700.72;4970368;28;20206;-75
2023/08/09 10:28:13;;;;;;;1.75;1.50;;;;;;;24.57;43.64;94686.53;4970520;28;20665;-75
2023/08/09 10:30:48;;;;;;;1.55;1.45;;;;;;;24.48;42.84;94689.00;4970360;28;20210;-76
2023/08/09 10:33:19;;;;;;;1.60;1.50;;;;;;;24.44;43.12;94677.22;4970750;28;20205;-76
2023/08/09 10:35:50;;;;;;;3.58;1.90;;;;;;;24.78;43.33;94677.91;4970194;28;20230;-76
2023/08/09 10:38:19;;;;;;;1.50;1.40;;;;;;;24.64;43.19;94671.78;4970597;28;20218;-75
2023/08/09 10:40:51;;;;;;;1.77;1.40;;;;;;;25.24;41.99;94662.63;4969933;28;20293;-75
2023/08/09 10:43:20;;;;;;;2.72;1.73;;;;;;;25.89;41.70;94673.41;4970425;28;20201;-76
2023/08/09 10:45:48;;;;;;;4.75;1.52;;;;;;;26.38;41.63;94660.56;4970267;28;20665;-77
2023/08/09 10:48:21;;;;;;;1.92;1.58;;;;;;;26.89;39.39;94657.06;4970454;28;20206;-76
2023/08/09 10:50:48;;;;;;;1.55;1.45;;;;;;;26.35;40.08;94650.31;4970436;28;20214;-75
2023/08/09 10:53:21;;;;;;;1.50;1.40;;;;;;;25.37;40.99;94660.81;4970014;28;20679;-76
2023/08/09 10:55:49;;;;;;;1.77;1.63;;;;;;;25.40;41.27;94651.66;4972931;28;20202;-76
2023/08/09 10:58:16;;;;;;;1.80;1.58;;;;;;;25.12;41.25;94649.34;4974214;28;20238;-75
2023/08/09 11:00:43;;;;;;;2.30;1.40;;;;;;;25.66;41.11;94643.69;4973848;28;20349;-75
2023/08/09 11:03:12;;;;;;;1.42;1.33;;;;;;;26.06;39.71;94634.22;4973804;28;20206;-76
2023/08/09 11:05:40;;;;;;;2.80;1.70;;;;;;;25.54;41.88;94641.50;4973583;28;20230;-75
2023/08/09 11:08:12;;;;;;;1.85;1.60;;;;;;;25.22;41.46;94642.84;4969993;28;20261;-75
2023/08/09 11:10:41;;;;;;;2.03;1.50;;;;;;;25.31;41.85;94640.31;4973410;28;20221;-76
2023/08/09 11:13:12;;;;;;;1.60;1.50;;;;;;;26.03;41.09;94617.59;4973488;28;20664;-76
2023/08/09 11:15:43;;;;;;;1.73;1.63;;;;;;;25.92;40.02;94622.59;4973481;28;20202;-76
2023/08/09 11:18:10;;;;;;;2.00;1.58;;;;;;;26.45;38.99;94615.97;4973473;28;20234;-76
2023/08/09 11:20:36;;;;;;;1.70;1.60;;;;;;;25.82;38.72;94629.94;4973066;28;20261;-75
2023/08/09 11:23:05;;;;;;;3.33;1.58;;;;;;;26.16;39.98;94616.53;4972991;28;20222;-75
2023/08/09 11:25:33;;;;;;;2.08;1.60;;;;;;;26.40;38.48;94625.59;4973427;28;20202;-77
2023/08/09 11:28:02;;;;;;;1.50;1.40;;;;;;;26.87;37.39;94608.66;4973975;28;20216;-76
2023/08/09 11:30:31;;;;;;;1.50;1.40;;;;;;;26.86;37.02;94607.88;4973445;28;20242;-76
2023/08/09 11:33:00;;;;;;;1.45;1.35;;;;;;;27.29;37.45;94606.88;4973518;28;20707;-75
2023/08/09 11:35:30;;;;;;;1.77;1.40;;;;;;;27.50;36.19;94592.41;4973401;28;20210;-75